Terminal Aerodrome Forecast
Issued by NWS

Home | Current Version | Previous Version | Graphics & Text | Print | Product List | Glossary On
Versions: 1 2 3 4 5 6 7 8 9 10 11 12 13 14 15 16 17 18 19 20 21 22 23 24 25 26 27
000
FTUS45 KGGW 231000 AAA
TAFOLF
TAF AMD
KOLF 231050Z 2311/2406 29021G32KT P6SM VCSH SCT017 OVC025
     FM231800 32021G32KT P6SM VCSH OVC025
     FM240000 31014KT P6SM BKN045=

USA.gov is the U.S. government's official web portal to all federal, state and local government web resources and services.